Time;durP1;ratioP1;P1;durP2;ratioP2;P2;SDS_P1;SDS_P2;PMS_P1;PMS_P2;Temp;Humidity;BMP_temperature;BMP_pressure;BME280_temperature;BME280_humidity;BME280_pressure;Samples;Min_cycle;Max_cycle;Signal;HPM_P1;HPM_P2
2022/07/25 00:00:11;;;;;;;;;;;;;;;30.34;57.41;98582.72;5052212;28;19951;-40
2022/07/25 00:02:36;;;;;;;;;;;;;;;30.47;55.78;98576.72;5053302;28;19928;-39
2022/07/25 00:05:01;;;;;;;;;;;;;;;30.11;56.46;98580.16;5052984;28;19921;-39
2022/07/25 00:07:27;;;;;;;;;;;;;;;29.66;58.27;98581.94;5051648;28;19992;-39
2022/07/25 00:09:52;;;;;;;;;;;;;;;29.45;59.21;98577.34;5052717;28;20233;-40
2022/07/25 00:12:18;;;;;;;;;;;;;;;29.57;58.47;98570.59;5053911;28;19926;-39
2022/07/25 00:14:43;;;;;;;;;;;;;;;29.89;57.06;98568.63;5051947;28;19931;-39
2022/07/25 00:17:08;;;;;;;;;;;;;;;29.63;57.09;98573.50;5054053;28;19916;-39
2022/07/25 00:19:34;;;;;;;;;;;;;;;30.13;56.80;98564.00;5052946;28;20425;-39
2022/07/25 00:21:59;;;;;;;;;;;;;;;29.45;57.08;98568.59;5053034;28;20613;-39
2022/07/25 00:24:24;;;;;;;;;;;;;;;29.32;58.15;98564.69;5052569;28;20570;-39
2022/07/25 00:26:49;;;;;;;;;;;;;;;29.80;56.99;98559.09;5051720;28;20580;-40
2022/07/25 00:29:14;;;;;;;;;;;;;;;29.88;56.40;98555.53;5050628;28;19973;-39
2022/07/25 00:31:40;;;;;;;;;;;;;;;29.98;55.04;98556.91;5051811;28;19924;-39
2022/07/25 00:34:05;;;;;;;;;;;;;;;30.20;53.81;98555.13;5051439;28;19947;-39
2022/07/25 00:36:30;;;;;;;;;;;;;;;30.56;52.14;98558.81;5053686;28;19920;-39
2022/07/25 00:38:55;;;;;;;;;;;;;;;30.71;52.06;98556.94;5051705;28;20092;-39
2022/07/25 00:41:21;;;;;;;;;;;;;;;30.30;54.41;98559.34;5051244;28;20045;-39
2022/07/25 00:43:46;;;;;;;;;;;;;;;30.24;54.94;98566.19;5052626;28;19920;-39
2022/07/25 00:46:12;;;;;;;;;;;;;;;30.23;54.69;98554.75;5053192;28;19970;-39
2022/07/25 00:48:38;;;;;;;;;;;;;;;29.77;54.98;98559.47;5051772;28;20385;-39
2022/07/25 00:51:04;;;;;;;;;;;;;;;29.57;57.51;98565.28;5053245;28;20031;-40
2022/07/25 00:53:29;;;;;;;;;;;;;;;29.16;60.04;98559.53;5052737;28;19920;-40
2022/07/25 00:55:54;;;;;;;;;;;;;;;29.56;58.06;98563.66;5051097;28;20254;-39
2022/07/25 00:58:19;;;;;;;;;;;;;;;29.77;57.21;98548.88;5053717;28;20454;-40
2022/07/25 01:00:45;;;;;;;;;;;;;;;29.14;59.55;98551.75;5050894;28;20012;-39
2022/07/25 01:03:10;;;;;;;;;;;;;;;29.52;58.33;98545.63;5052412;28;19963;-39
2022/07/25 01:05:35;;;;;;;;;;;;;;;29.62;57.09;98543.50;5053562;28;20384;-39
2022/07/25 01:08:01;;;;;;;;;;;;;;;29.40;57.24;98546.06;5052030;28;20427;-39
2022/07/25 01:10:26;;;;;;;;;;;;;;;29.36;58.91;98536.00;5049835;28;20404;-39
2022/07/25 01:12:52;;;;;;;;;;;;;;;29.10;61.31;98531.09;5051737;28;19924;-39
2022/07/25 01:15:18;;;;;;;;;;;;;;;29.45;58.66;98520.81;5053241;28;19922;-39
2022/07/25 01:17:43;;;;;;;;;;;;;;;28.81;60.31;98515.88;5051655;28;19920;-39
2022/07/25 01:20:21;;;;;;;;;;;;;;;28.90;62.43;98520.16;5052446;28;20305;-39
2022/07/25 01:22:47;;;;;;;;;;;;;;;29.23;60.15;98517.22;5052210;28;20039;-39
2022/07/25 01:25:13;;;;;;;;;;;;;;;28.51;63.07;98513.13;5053065;28;19920;-40
2022/07/25 01:27:38;;;;;;;;;;;;;;;28.85;60.79;98512.72;5052834;28;20277;-39
2022/07/25 01:30:04;;;;;;;;;;;;;;;29.22;60.37;98510.25;5052276;28;19930;-39
2022/07/25 01:32:29;;;;;;;;;;;;;;;28.62;61.72;98512.72;5052125;28;19943;-39
2022/07/25 01:34:55;;;;;;;;;;;;;;;28.95;61.79;98517.78;5053634;28;19916;-39
2022/07/25 01:37:20;;;;;;;;;;;;;;;29.61;58.34;98505.53;5053533;28;19916;-39
2022/07/25 01:39:45;;;;;;;;;;;;;;;28.61;61.01;98505.78;5052221;28;19927;-39
2022/07/25 01:42:10;;;;;;;;;;;;;;;28.85;61.24;98507.44;5049675;28;19921;-39
2022/07/25 01:44:35;;;;;;;;;;;;;;;28.83;60.96;98504.13;5051114;28;19920;-39
2022/07/25 01:47:01;;;;;;;;;;;;;;;28.56;61.12;98502.84;5052011;28;20619;-39
2022/07/25 01:49:26;;;;;;;;;;;;;;;28.55;61.13;98498.53;5052464;28;20594;-39
2022/07/25 01:51:51;;;;;;;;;;;;;;;29.18;60.64;98502.66;5051190;28;20270;-39
2022/07/25 01:54:17;;;;;;;;;;;;;;;29.07;59.84;98494.31;5050396;28;20435;-39
2022/07/25 01:56:43;;;;;;;;;;;;;;;28.87;59.64;98496.63;5050384;28;19920;-39
2022/07/25 01:59:08;;;;;;;;;;;;;;;29.05;58.09;98497.13;5051361;28;20016;-39
2022/07/25 02:01:33;;;;;;;;;;;;;;;29.19;58.49;98492.88;5051319;28;19924;-39
2022/07/25 02:03:59;;;;;;;;;;;;;;;29.32;57.85;98489.63;5050405;28;19982;-39
2022/07/25 02:06:24;;;;;;;;;;;;;;;29.10;58.64;98483.34;5049533;28;19951;-39
2022/07/25 02:08:49;;;;;;;;;;;;;;;29.12;58.50;98476.88;5051653;28;19948;-39
2022/07/25 02:11:16;;;;;;;;;;;;;;;28.70;60.60;98478.22;5051045;28;21823;-39
2022/07/25 02:13:41;;;;;;;;;;;;;;;29.07;61.40;98481.03;5052626;28;20009;-39
2022/07/25 02:16:07;;;;;;;;;;;;;;;28.83;60.12;98482.94;5051677;28;19963;-39
2022/07/25 02:18:32;;;;;;;;;;;;;;;29.33;59.13;98484.13;5055729;28;20393;-39
2022/07/25 02:20:57;;;;;;;;;;;;;;;28.55;61.46;98482.63;5055340;28;19924;-39
2022/07/25 02:23:22;;;;;;;;;;;;;;;28.93;60.36;98474.72;5055915;28;19924;-39
2022/07/25 02:25:48;;;;;;;;;;;;;;;28.44;62.29;98472.41;5054288;28;19985;-39
2022/07/25 02:28:13;;;;;;;;;;;;;;;28.86;60.59;98466.66;5055750;28;19981;-39
2022/07/25 02:30:38;;;;;;;;;;;;;;;28.11;64.76;98475.28;5054716;28;19923;-39
2022/07/25 02:33:03;;;;;;;;;;;;;;;28.86;62.42;98466.66;5053553;28;19920;-39
2022/07/25 02:35:28;;;;;;;;;;;;;;;28.94;60.80;98463.94;5055141;28;20387;-39
2022/07/25 02:37:54;;;;;;;;;;;;;;;28.32;62.29;98475.47;5053931;28;20399;-39
2022/07/25 02:40:19;;;;;;;;;;;;;;;28.09;64.20;98469.34;5052623;28;20019;-39
2022/07/25 02:42:44;;;;;;;;;;;;;;;28.11;64.28;98467.34;5055660;28;20405;-40
2022/07/25 02:45:10;;;;;;;;;;;;;;;28.11;65.01;98462.84;5055347;28;19912;-39
2022/07/25 02:47:35;;;;;;;;;;;;;;;28.26;65.27;98462.94;5054079;28;19920;-39
2022/07/25 02:50:00;;;;;;;;;;;;;;;28.11;64.84;98459.41;5055512;28;19924;-39
2022/07/25 02:52:25;;;;;;;;;;;;;;;28.35;64.71;98453.94;5056203;28;19946;-39
2022/07/25 02:54:51;;;;;;;;;;;;;;;27.85;65.45;98452.59;5053712;28;19928;-39
2022/07/25 02:57:16;;;;;;;;;;;;;;;28.14;65.65;98451.94;5054056;28;19920;-39
2022/07/25 02:59:41;;;;;;;;;;;;;;;28.21;66.04;98446.75;5054342;28;20011;-39
2022/07/25 03:02:06;;;;;;;;;;;;;;;28.04;65.88;98450.50;5055353;28;19924;-39
2022/07/25 03:04:32;;;;;;;;;;;;;;;27.94;66.82;98446.25;5056137;28;19927;-39
2022/07/25 03:06:57;;;;;;;;;;;;;;;28.19;66.34;98443.47;5053807;28;19920;-39
2022/07/25 03:09:22;;;;;;;;;;;;;;;28.35;65.25;98438.06;5054080;28;19921;-39
2022/07/25 03:11:49;;;;;;;;;;;;;;;28.17;66.07;98442.81;5056051;28;20343;-39
2022/07/25 03:14:15;;;;;;;;;;;;;;;28.03;66.82;98438.25;5054335;28;19932;-39
2022/07/25 03:16:40;;;;;;;;;;;;;;;27.37;70.04;98438.53;5054585;28;19920;-39
2022/07/25 03:19:09;;;;;;;;;;;;;;;27.20;70.53;98436.91;5052844;28;19920;-40
2022/07/25 03:21:34;;;;;;;;;;;;;;;27.89;69.00;98431.88;5055599;28;20808;-39
2022/07/25 03:23:59;;;;;;;;;;;;;;;27.47;69.51;98428.56;5054619;28;19927;-39
2022/07/25 03:26:24;;;;;;;;;;;;;;;27.74;70.45;98422.00;5054466;28;19944;-39
2022/07/25 03:28:50;;;;;;;;;;;;;;;27.09;72.28;98420.38;5051025;28;20008;-39
2022/07/25 03:31:15;;;;;;;;;;;;;;;26.80;74.90;98417.47;5053999;28;19920;-39
2022/07/25 03:33:40;;;;;;;;;;;;;;;27.81;72.36;98408.91;5054646;28;19923;-39
2022/07/25 03:36:06;;;;;;;;;;;;;;;27.40;73.75;98408.28;5054873;28;19923;-39
2022/07/25 03:38:31;;;;;;;;;;;;;;;27.43;72.89;98413.22;5054708;28;19998;-39
2022/07/25 03:40:56;;;;;;;;;;;;;;;27.47;73.57;98418.00;5052640;28;19924;-39
2022/07/25 03:43:21;;;;;;;;;;;;;;;27.58;73.67;98400.13;5056623;28;19951;-39
2022/07/25 03:45:46;;;;;;;;;;;;;;;27.15;73.74;98399.56;5054512;28;19959;-39
2022/07/25 03:48:12;;;;;;;;;;;;;;;27.20;74.80;98392.81;5054541;28;20421;-39
2022/07/25 03:50:37;;;;;;;;;;;;;;;27.06;74.78;98391.66;5052581;28;20397;-39
2022/07/25 03:53:02;;;;;;;;;;;;;;;27.53;71.69;98388.22;5053066;28;20960;-39
2022/07/25 03:55:28;;;;;;;;;;;;;;;27.54;72.41;98384.56;5054913;28;20640;-39
2022/07/25 03:57:53;;;;;;;;;;;;;;;27.94;69.61;98387.22;5053320;28;19916;-39
2022/07/25 04:00:18;;;;;;;;;;;;;;;27.50;70.61;98377.16;5049744;28;19955;-39
2022/07/25 04:02:43;;;;;;;;;;;;;;;27.49;71.04;98380.81;5051472;28;19955;-39
2022/07/25 04:05:09;;;;;;;;;;;;;;;27.75;69.74;98373.38;5054595;28;20289;-39
2022/07/25 04:07:35;;;;;;;;;;;;;;;28.12;67.65;98379.81;5054526;28;20271;-39
2022/07/25 04:10:00;;;;;;;;;;;;;;;27.69;70.16;98374.09;5051847;28;19977;-39
2022/07/25 04:12:25;;;;;;;;;;;;;;;27.52;70.81;98365.41;5054595;28;19920;-39
2022/07/25 04:14:50;;;;;;;;;;;;;;;27.78;69.13;98369.59;5054923;28;19921;-39
2022/07/25 04:17:16;;;;;;;;;;;;;;;27.85;69.52;98362.63;5054808;28;20015;-39
2022/07/25 04:19:41;;;;;;;;;;;;;;;27.97;69.44;98365.69;5051814;28;19954;-39
2022/07/25 04:22:06;;;;;;;;;;;;;;;27.53;69.58;98359.13;5053720;28;19947;-39
2022/07/25 04:24:31;;;;;;;;;;;;;;;27.76;69.95;98361.00;5051352;28;19924;-39
2022/07/25 04:26:57;;;;;;;;;;;;;;;28.12;68.98;98353.34;5052427;28;19925;-39
2022/07/25 04:29:22;;;;;;;;;;;;;;;28.25;68.77;98351.91;5051553;28;19920;-39
2022/07/25 04:31:47;;;;;;;;;;;;;;;28.01;69.11;98350.25;5051649;28;19920;-39
2022/07/25 04:34:12;;;;;;;;;;;;;;;27.93;68.75;98354.59;5052899;28;19917;-39
2022/07/25 04:36:38;;;;;;;;;;;;;;;28.45;67.08;98339.81;5053045;28;19985;-39
2022/07/25 04:39:03;;;;;;;;;;;;;;;28.66;66.91;98336.50;5052724;28;19927;-39
2022/07/25 04:41:28;;;;;;;;;;;;;;;28.34;67.83;98340.25;5047442;28;19935;-39
2022/07/25 04:43:54;;;;;;;;;;;;;;;27.78;70.57;98340.47;5046208;28;19920;-39
2022/07/25 04:46:19;;;;;;;;;;;;;;;28.31;67.24;98330.00;5049536;28;19921;-39
2022/07/25 04:48:44;;;;;;;;;;;;;;;28.36;67.17;98339.06;5052924;28;19985;-39
2022/07/25 04:51:10;;;;;;;;;;;;;;;28.23;68.31;98341.47;5049706;28;20756;-39
2022/07/25 04:53:35;;;;;;;;;;;;;;;28.46;67.35;98327.38;5052111;28;20432;-39
2022/07/25 04:56:00;;;;;;;;;;;;;;;28.46;66.82;98327.38;5052822;28;19920;-39
2022/07/25 04:58:25;;;;;;;;;;;;;;;28.32;68.31;98329.81;5053441;28;19931;-39
2022/07/25 05:00:51;;;;;;;;;;;;;;;28.26;68.90;98332.34;5049703;28;19928;-39
2022/07/25 05:03:16;;;;;;;;;;;;;;;28.86;66.08;98323.53;5051894;28;19928;-39
2022/07/25 05:05:41;;;;;;;;;;;;;;;28.82;66.15;98324.06;5051957;28;19920;-39
2022/07/25 05:08:06;;;;;;;;;;;;;;;28.91;66.72;98321.16;5052606;28;19916;-39
2022/07/25 05:10:31;;;;;;;;;;;;;;;28.55;67.64;98315.72;5052660;28;19974;-39
2022/07/25 05:12:57;;;;;;;;;;;;;;;28.62;68.14;98314.00;5049350;28;20026;-39
2022/07/25 05:15:22;;;;;;;;;;;;;;;29.02;66.40;98322.53;5050803;28;20113;-39
2022/07/25 05:17:47;;;;;;;;;;;;;;;29.26;65.69;98315.28;5051346;28;19928;-39
2022/07/25 05:20:13;;;;;;;;;;;;;;;29.40;65.10;98314.47;5051111;28;19920;-39
2022/07/25 05:22:38;;;;;;;;;;;;;;;29.00;65.85;98311.28;5051880;28;19912;-39
2022/07/25 05:25:06;;;;;;;;;;;;;;;29.73;64.75;98314.03;5049022;28;19920;-39
2022/07/25 05:27:32;;;;;;;;;;;;;;;29.53;64.86;98319.88;5050753;28;20345;-40
2022/07/25 05:29:57;;;;;;;;;;;;;;;29.48;65.60;98311.69;5050634;28;19927;-39
2022/07/25 05:32:22;;;;;;;;;;;;;;;29.40;65.13;98309.16;5049223;28;19924;-39
2022/07/25 05:34:47;;;;;;;;;;;;;;;29.32;68.33;98306.59;5049830;28;19916;-39
2022/07/25 05:37:13;;;;;;;;;;;;;;;29.23;65.82;98307.72;5052534;28;19956;-39
2022/07/25 05:39:39;;;;;;;;;;;;;;;29.91;62.88;98298.47;5052179;28;19917;-39
2022/07/25 05:42:05;;;;;;;;;;;;;;;29.84;63.68;98308.22;5051484;28;19924;-39
2022/07/25 05:44:30;;;;;;;;;;;;;;;29.32;65.91;98309.25;5052834;28;19970;-39
2022/07/25 05:46:55;;;;;;;;;;;;;;;30.23;62.72;98304.25;5048980;28;20421;-53
2022/07/25 05:49:20;;;;;;;;;;;;;;;29.88;63.32;98296.22;5049599;28;20715;-53
2022/07/25 05:51:46;;;;;;;;;;;;;;;30.10;63.00;98298.84;5049873;28;19921;-53
2022/07/25 05:54:11;;;;;;;;;;;;;;;30.33;62.09;98283.50;5056911;28;20418;-53
2022/07/25 05:56:36;;;;;;;;;;;;;;;30.10;61.57;98278.41;5054888;28;20444;-53
2022/07/25 05:59:02;;;;;;;;;;;;;;;30.88;59.30;98280.19;5055530;28;20455;-54
2022/07/25 06:01:27;;;;;;;;;;;;;;;31.42;58.70;98276.75;5055998;28;19929;-53
2022/07/25 06:03:52;;;;;;;;;;;;;;;30.76;60.53;98283.38;5056247;28;20523;-55
2022/07/25 06:06:18;;;;;;;;;;;;;;;30.54;60.06;98289.78;5054454;28;20622;-54
2022/07/25 06:08:43;;;;;;;;;;;;;;;31.10;58.64;98276.41;5053436;28;19927;-53
2022/07/25 06:11:08;;;;;;;;;;;;;;;30.97;57.56;98279.00;5055210;28;19924;-55
2022/07/25 06:13:33;;;;;;;;;;;;;;;31.00;56.64;98275.97;5055407;28;19920;-54
2022/07/25 06:15:59;;;;;;;;;;;;;;;31.75;55.78;98270.66;5055256;28;19917;-55
2022/07/25 06:18:25;;;;;;;;;;;;;;;31.08;57.60;98272.31;5053395;28;20015;-56
2022/07/25 06:20:50;;;;;;;;;;;;;;;32.05;53.83;98276.47;5054957;28;19920;-54
2022/07/25 06:23:15;;;;;;;;;;;;;;;31.77;56.26;98268.63;5054334;28;19966;-55
2022/07/25 06:25:41;;;;;;;;;;;;;;;32.26;54.64;98264.75;5055139;28;19975;-55
2022/07/25 06:28:06;;;;;;;;;;;;;;;31.78;54.59;98270.28;5054199;28;20288;-55
2022/07/25 06:30:31;;;;;;;;;;;;;;;32.44;53.37;98264.94;5054493;28;19936;-54
2022/07/25 06:32:56;;;;;;;;;;;;;;;31.59;56.04;98272.72;5061225;28;20015;-56
2022/07/25 06:35:22;;;;;;;;;;;;;;;31.85;54.15;98265.75;5054197;28;20008;-55
2022/07/25 06:37:47;;;;;;;;;;;;;;;32.51;52.82;98270.28;5050867;28;19920;-55
2022/07/25 06:40:13;;;;;;;;;;;;;;;32.61;53.22;98259.19;5053862;28;19916;-55
2022/07/25 06:42:42;;;;;;;;;;;;;;;32.06;53.62;98268.25;5055574;28;19917;-55
2022/07/25 06:45:08;;;;;;;;;;;;;;;32.90;53.29;98258.69;5055323;28;19934;-55
2022/07/25 06:47:34;;;;;;;;;;;;;;;33.06;50.89;98267.28;5051070;28;19920;-55
2022/07/25 06:49:59;;;;;;;;;;;;;;;32.90;51.89;98264.03;5053025;28;20002;-54
2022/07/25 06:52:24;;;;;;;;;;;;;;;32.73;52.24;98262.88;5054259;28;21719;-55
2022/07/25 06:54:49;;;;;;;;;;;;;;;32.70;51.63;98263.25;5055109;28;20266;-55
2022/07/25 06:57:14;;;;;;;;;;;;;;;33.34;51.59;98261.59;5053568;28;21117;-56
2022/07/25 06:59:40;;;;;;;;;;;;;;;32.33;55.20;98262.91;5052031;28;19928;-53
2022/07/25 07:02:05;;;;;;;;;;;;;;;32.85;53.67;98261.19;5049391;28;19973;-54
2022/07/25 07:04:30;;;;;;;;;;;;;;;32.03;56.26;98257.19;5051172;28;19932;-55
2022/07/25 07:06:55;;;;;;;;;;;;;;;32.32;55.25;98253.28;5053586;28;19916;-55
2022/07/25 07:09:21;;;;;;;;;;;;;;;32.23;55.56;98249.19;5049065;28;19920;-55
2022/07/25 07:11:46;;;;;;;;;;;;;;;32.20;55.40;98254.94;5053252;28;19916;-55
2022/07/25 07:14:11;;;;;;;;;;;;;;;33.06;54.19;98243.28;5054765;28;19920;-55
2022/07/25 07:16:36;;;;;;;;;;;;;;;32.94;53.75;98242.28;5052560;28;19953;-56
2022/07/25 07:19:02;;;;;;;;;;;;;;;33.42;53.16;98250.66;5054166;28;19920;-55
2022/07/25 07:21:27;;;;;;;;;;;;;;;34.12;50.91;98239.94;5052162;28;19924;-56
2022/07/25 07:23:52;;;;;;;;;;;;;;;33.53;52.22;98236.63;5053968;28;19917;-55
2022/07/25 07:26:17;;;;;;;;;;;;;;;33.56;53.48;98234.56;5053613;28;19920;-54
2022/07/25 07:28:43;;;;;;;;;;;;;;;33.79;51.31;98239.38;5050136;28;19921;-56
2022/07/25 07:31:08;;;;;;;;;;;;;;;33.43;52.61;98236.28;5052390;28;20508;-56
2022/07/25 07:33:34;;;;;;;;;;;;;;;33.38;53.69;98233.44;5050780;28;21247;-56
2022/07/25 07:35:59;;;;;;;;;;;;;;;34.28;51.27;98232.38;5052025;28;19932;-56
2022/07/25 07:38:25;;;;;;;;;;;;;;;35.14;47.59;98226.06;5052779;28;19924;-55
2022/07/25 07:40:50;;;;;;;;;;;;;;;33.49;51.84;98229.28;5048730;28;19924;-56
2022/07/25 07:43:15;;;;;;;;;;;;;;;33.98;51.10;98226.88;5051149;28;19920;-56
2022/07/25 07:45:41;;;;;;;;;;;;;;;35.23;45.68;98223.88;5053109;28;19943;-55
2022/07/25 07:48:06;;;;;;;;;;;;;;;34.37;47.27;98220.34;5052661;28;19920;-56
2022/07/25 07:50:32;;;;;;;;;;;;;;;33.97;49.08;98219.91;5050360;28;19920;-56
2022/07/25 07:52:57;;;;;;;;;;;;;;;34.64;48.29;98220.09;5051751;28;19920;-56
2022/07/25 07:58:06;;;;;;;;;;;;;;;35.48;44.21;98217.56;5052522;28;19927;-56
2022/07/25 08:00:34;;;;;;;;;;;;;;;35.29;44.80;98216.81;5052376;28;20589;-56
2022/07/25 08:03:00;;;;;;;;;;;;;;;35.76;44.10;98216.94;5053002;28;19930;-55
2022/07/25 08:05:26;;;;;;;;;;;;;;;34.83;44.75;98210.19;5052343;28;20590;-56
2022/07/25 08:07:52;;;;;;;;;;;;;;;34.71;45.82;98210.13;5051150;28;19936;-56
2022/07/25 08:10:18;;;;;;;;;;;;;;;35.75;42.56;98213.44;5052214;28;19974;-56
2022/07/25 08:12:43;;;;;;;;;;;;;;;35.73;42.30;98215.53;5053296;28;19916;-56
2022/07/25 08:15:09;;;;;;;;;;;;;;;36.31;41.91;98213.13;5051418;28;19920;-54
2022/07/25 08:17:34;;;;;;;;;;;;;;;36.03;44.67;98212.75;5052218;28;20015;-57
2022/07/25 08:19:59;;;;;;;;;;;;;;;36.46;42.19;98218.00;5048978;28;20963;-57
2022/07/25 08:22:34;;;;;;;;;;;;;;;35.71;42.88;98211.47;5053622;28;20686;-57
2022/07/25 08:24:59;;;;;;;;;;;;;;;35.07;45.32;98203.91;5053472;28;19920;-57
2022/07/25 08:27:24;;;;;;;;;;;;;;;35.73;43.68;98201.34;5052959;28;19997;-57
2022/07/25 08:29:50;;;;;;;;;;;;;;;35.76;44.03;98201.69;5051419;28;19927;-57
2022/07/25 08:32:15;;;;;;;;;;;;;;;35.99;44.50;98197.38;5053368;28;20008;-57
2022/07/25 08:34:40;;;;;;;;;;;;;;;35.38;44.52;98194.84;5053443;28;19951;-57
2022/07/25 08:37:05;;;;;;;;;;;;;;;35.84;43.89;98197.03;5051322;28;20006;-57
2022/07/25 08:39:30;;;;;;;;;;;;;;;36.69;42.88;98195.72;5050759;28;19931;-57
2022/07/25 08:41:56;;;;;;;;;;;;;;;35.78;44.99;98210.31;5049440;28;19934;-57
2022/07/25 08:44:21;;;;;;;;;;;;;;;36.36;44.40;98194.50;5051604;28;19920;-57
2022/07/25 08:46:46;;;;;;;;;;;;;;;37.03;43.59;98189.41;5050967;28;19927;-57
2022/07/25 08:49:11;;;;;;;;;;;;;;;36.51;42.10;98197.47;5051803;28;19973;-58
2022/07/25 08:51:37;;;;;;;;;;;;;;;36.76;41.87;98188.34;5049148;28;19921;-57
2022/07/25 08:54:02;;;;;;;;;;;;;;;36.43;43.23;98189.81;5051852;28;19928;-57
2022/07/25 08:56:28;;;;;;;;;;;;;;;37.80;42.12;98189.94;5052607;28;19974;-57
2022/07/25 08:58:56;;;;;;;;;;;;;;;37.15;42.87;98196.63;5050556;28;19968;-57
2022/07/25 09:01:21;;;;;;;;;;;;;;;36.47;43.17;98196.31;5050627;28;19934;-57
2022/07/25 09:03:46;;;;;;;;;;;;;;;36.51;42.50;98199.34;5051683;28;19916;-57
2022/07/25 09:06:15;;;;;;;;;;;;;;;37.64;39.96;98188.88;5052463;28;19916;-57
2022/07/25 09:08:54;;;;;;;;;;;;;;;36.66;42.40;98198.88;5052707;28;19950;-57
2022/07/25 09:11:49;;;;;;;;;;;;;;;37.04;41.59;98198.25;5050602;28;19916;-57
2022/07/25 09:14:14;;;;;;;;;;;;;;;37.33;40.79;98193.72;5042772;28;19924;-57
2022/07/25 09:16:40;;;;;;;;;;;;;;;36.18;42.50;98204.28;5052318;28;19973;-57
2022/07/25 09:19:06;;;;;;;;;;;;;;;37.10;41.26;98193.84;5051520;28;19928;-57
2022/07/25 09:21:31;;;;;;;;;;;;;;;37.20;40.43;98191.31;5050782;28;19921;-57
2022/07/25 09:24:06;;;;;;;;;;;;;;;37.71;39.36;98189.53;5051919;28;19927;-57
2022/07/25 09:26:31;;;;;;;;;;;;;;;37.47;42.60;98189.69;5051024;28;19928;-57
2022/07/25 09:28:57;;;;;;;;;;;;;;;37.49;39.09;98186.72;5047375;28;19920;-58
2022/07/25 09:31:30;;;;;;;;;;;;;;;37.80;39.37;98187.25;5052564;28;19982;-58
2022/07/25 09:33:57;;;;;;;;;;;;;;;37.33;40.83;98191.03;5050147;28;19931;-57
2022/07/25 09:36:23;;;;;;;;;;;;;;;37.17;40.97;98189.13;5051983;28;19962;-57
2022/07/25 09:38:59;;;;;;;;;;;;;;;37.25;42.02;98191.44;5050201;28;20906;-57
2022/07/25 09:41:35;;;;;;;;;;;;;;;36.94;39.40;98182.78;5050883;28;20033;-57
2022/07/25 09:44:00;;;;;;;;;;;;;;;38.00;39.73;98189.41;5051064;28;19916;-57
2022/07/25 09:46:29;;;;;;;;;;;;;;;36.42;41.14;98188.97;5052341;28;19917;-57
2022/07/25 09:48:55;;;;;;;;;;;;;;;36.46;42.45;98186.63;5049970;28;19929;-57
2022/07/25 09:51:22;;;;;;;;;;;;;;;37.53;40.66;98189.75;5052728;28;20281;-57
2022/07/25 09:53:47;;;;;;;;;;;;;;;37.53;44.06;98170.94;5049262;28;19981;-57
2022/07/25 09:56:13;;;;;;;;;;;;;;;37.56;40.62;98178.53;5050704;28;20630;-57
2022/07/25 09:58:38;;;;;;;;;;;;;;;38.45;38.29;98178.47;5051182;28;20465;-57
2022/07/25 10:01:04;;;;;;;;;;;;;;;38.68;38.89;98185.53;5050226;28;20031;-57
2022/07/25 10:03:50;;;;;;;;;;;;;;;38.05;38.02;98179.59;5049541;28;19930;-57
2022/07/25 10:06:20;;;;;;;;;;;;;;;39.99;35.88;98192.69;5047116;28;20002;-58
2022/07/25 10:08:45;;;;;;;;;;;;;;;37.37;37.63;98189.50;5050329;28;20439;-57
2022/07/25 10:11:20;;;;;;;;;;;;;;;39.52;39.05;98192.31;5049785;28;20023;-58
2022/07/25 10:13:45;;;;;;;;;;;;;;;38.07;39.58;98198.16;5051369;28;19924;-57
2022/07/25 10:16:28;;;;;;;;;;;;;;;38.48;40.18;98198.75;5047730;28;19927;-57
2022/07/25 10:18:55;;;;;;;;;;;;;;;38.34;41.63;98205.50;5047558;28;19943;-58
2022/07/25 10:21:21;;;;;;;;;;;;;;;38.86;42.95;98205.09;5048180;28;20381;-57
2022/07/25 10:23:56;;;;;;;;;;;;;;;39.70;36.25;98187.59;5049885;28;19920;-57
2022/07/25 10:26:22;;;;;;;;;;;;;;;40.44;39.20;98185.94;5048948;28;19925;-58
2022/07/25 10:28:48;;;;;;;;;;;;;;;40.42;35.63;98171.88;5047029;28;19948;-57
2022/07/25 10:31:21;;;;;;;;;;;;;;;39.84;38.17;98174.53;5049047;28;19920;-58
2022/07/25 10:33:48;;;;;;;;;;;;;;;39.29;38.11;98176.47;5049158;28;19928;-58
2022/07/25 10:36:13;;;;;;;;;;;;;;;40.45;37.58;98172.19;5051799;28;19959;-58
2022/07/25 10:38:40;;;;;;;;;;;;;;;41.05;35.17;98167.22;5050937;28;20035;-58
2022/07/25 10:41:07;;;;;;;;;;;;;;;40.30;36.94;98175.63;5051535;28;19928;-58
2022/07/25 10:43:35;;;;;;;;;;;;;;;39.64;37.42;98177.84;5047885;28;19926;-58
2022/07/25 10:46:00;;;;;;;;;;;;;;;38.75;40.78;98181.81;5052609;28;20046;-58
2022/07/25 10:48:26;;;;;;;;;;;;;;;37.96;41.16;98180.22;5052769;28;20454;-58
2022/07/25 10:50:59;;;;;;;;;;;;;;;36.94;44.21;98180.09;5054869;28;20070;-58
2022/07/25 10:53:32;;;;;;;;;;;;;;;36.58;49.21;98189.28;5051535;28;19920;-58
2022/07/25 10:55:58;;;;;;;;;;;;;;;38.12;46.10;98190.16;5051396;28;20534;-58
2022/07/25 10:58:23;;;;;;;;;;;;;;;38.55;41.70;98183.22;5051747;28;20011;-57
2022/07/25 11:00:49;;;;;;;;;;;;;;;39.18;40.97;98197.09;5048855;28;20562;-58
2022/07/25 11:03:15;;;;;;;;;;;;;;;39.26;39.98;98198.53;5052299;28;19920;-58
2022/07/25 11:05:44;;;;;;;;;;;;;;;38.91;42.25;98207.84;5054294;28;19923;-58
2022/07/25 11:08:09;;;;;;;;;;;;;;;39.82;38.67;98200.94;5052638;28;20039;-57
2022/07/25 11:10:35;;;;;;;;;;;;;;;38.93;38.96;98200.34;5054159;28;19920;-57
2022/07/25 11:13:00;;;;;;;;;;;;;;;38.02;41.08;98195.38;5052977;28;20009;-58
2022/07/25 11:15:26;;;;;;;;;;;;;;;38.79;40.05;98191.03;5052954;28;19928;-58
2022/07/25 11:17:51;;;;;;;;;;;;;;;38.94;39.15;98193.91;5051803;28;20409;-57
2022/07/25 11:20:18;;;;;;;;;;;;;;;38.60;39.34;98191.34;5051254;28;20415;-58
2022/07/25 11:22:49;;;;;;;;;;;;;;;38.87;39.97;98185.19;5051767;28;19974;-57
2022/07/25 11:25:14;;;;;;;;;;;;;;;38.52;40.99;98181.03;5053811;28;19925;-58
2022/07/25 11:27:39;;;;;;;;;;;;;;;37.17;41.97;98170.34;5052061;28;19965;-57
2022/07/25 11:30:08;;;;;;;;;;;;;;;38.13;39.87;98175.66;5052735;28;19928;-57
2022/07/25 11:32:54;;;;;;;;;;;;;;;36.91;44.29;98185.16;5050805;28;19920;-58
2022/07/25 11:35:20;;;;;;;;;;;;;;;36.65;47.47;98179.28;5051112;28;20823;-58
2022/07/25 11:37:47;;;;;;;;;;;;;;;35.90;49.50;98185.38;5053604;28;19924;-58
2022/07/25 11:40:15;;;;;;;;;;;;;;;37.00;47.45;98189.88;5053687;28;19927;-58
2022/07/25 11:42:44;;;;;;;;;;;;;;;38.32;45.33;98188.81;5053921;28;19986;-58
2022/07/25 11:45:15;;;;;;;;;;;;;;;38.07;45.07;98193.59;5053258;28;20566;-58
2022/07/25 11:47:41;;;;;;;;;;;;;;;38.88;41.39;98193.00;5051229;28;19927;-58
2022/07/25 11:50:08;;;;;;;;;;;;;;;37.84;43.16;98197.28;5049728;28;19920;-58
2022/07/25 11:52:34;;;;;;;;;;;;;;;39.83;41.61;98197.19;5053205;28;20762;-58
2022/07/25 11:55:04;;;;;;;;;;;;;;;38.82;39.25;98195.88;5052624;28;19924;-58
2022/07/25 11:57:31;;;;;;;;;;;;;;;38.15;41.48;98200.41;5051643;28;20385;-58
2022/07/25 11:59:58;;;;;;;;;;;;;;;38.41;42.49;98203.44;5052096;28;20019;-58
2022/07/25 12:02:25;;;;;;;;;;;;;;;38.03;43.44;98205.09;5051415;28;19924;-57
2022/07/25 12:04:54;;;;;;;;;;;;;;;38.08;41.03;98200.59;5051259;28;19932;-58
2022/07/25 12:07:19;;;;;;;;;;;;;;;39.03;41.28;98203.16;5051240;28;20393;-58
2022/07/25 12:09:53;;;;;;;;;;;;;;;39.61;39.96;98205.34;5052136;28;19931;-58
2022/07/25 12:12:18;;;;;;;;;;;;;;;40.11;41.04;98206.78;5052451;28;19987;-58
2022/07/25 12:14:44;;;;;;;;;;;;;;;39.23;40.69;98196.34;5052281;28;19928;-58
2022/07/25 12:17:09;;;;;;;;;;;;;;;38.99;38.53;98183.19;5051658;28;19927;-58
2022/07/25 12:19:34;;;;;;;;;;;;;;;38.88;39.93;98192.19;5049270;28;19931;-58
2022/07/25 12:21:59;;;;;;;;;;;;;;;38.54;41.42;98181.59;5050366;28;19925;-58
2022/07/25 12:24:25;;;;;;;;;;;;;;;38.59;39.93;98183.53;5053279;28;19924;-58
2022/07/25 12:26:50;;;;;;;;;;;;;;;39.38;39.59;98190.31;5051315;28;19925;-58
2022/07/25 12:29:15;;;;;;;;;;;;;;;38.37;40.02;98180.81;5050353;28;19927;-57
2022/07/25 12:31:40;;;;;;;;;;;;;;;38.40;40.03;98185.69;5049087;28;19928;-58
2022/07/25 12:34:06;;;;;;;;;;;;;;;39.21;39.29;98185.00;5044391;28;19925;-58
2022/07/25 12:36:33;;;;;;;;;;;;;;;38.52;41.79;98183.72;5050980;28;20386;-58
2022/07/25 12:38:58;;;;;;;;;;;;;;;38.29;40.27;98190.91;5043567;28;20007;-58
2022/07/25 12:41:24;;;;;;;;;;;;;;;37.68;40.37;98184.66;5051815;28;19927;-57
2022/07/25 12:43:49;;;;;;;;;;;;;;;39.31;37.44;98179.72;5051448;28;20023;-57